sensor_id;sensor_type;location;lat;lon;timestamp;P1;durP1;ratioP1;P2;durP2;ratioP2
55469;SDS011;41334;47.872;16.384;2022-07-01T00:02:46;7.95;;;6.47;;
55469;SDS011;41334;47.872;16.384;2022-07-01T00:05:48;11.40;;;6.88;;
55469;SDS011;41334;47.872;16.384;2022-07-01T00:08:51;9.63;;;7.05;;
55469;SDS011;41334;47.872;16.384;2022-07-01T00:11:53;7.93;;;6.88;;
55469;SDS011;41334;47.872;16.384;2022-07-01T00:14:55;16.90;;;7.10;;
55469;SDS011;41334;47.872;16.384;2022-07-01T00:17:57;7.05;;;6.18;;
55469;SDS011;41334;47.872;16.384;2022-07-01T00:20:59;9.07;;;6.40;;
55469;SDS011;41334;47.872;16.384;2022-07-01T00:24:02;9.38;;;7.07;;
55469;SDS011;41334;47.872;16.384;2022-07-01T00:27:04;13.13;;;7.13;;
55469;SDS011;41334;47.872;16.384;2022-07-01T00:30:07;9.35;;;7.30;;
55469;SDS011;41334;47.872;16.384;2022-07-01T00:33:10;7.88;;;6.82;;
55469;SDS011;41334;47.872;16.384;2022-07-01T00:36:12;9.40;;;6.97;;
55469;SDS011;41334;47.872;16.384;2022-07-01T00:39:14;9.10;;;6.88;;
55469;SDS011;41334;47.872;16.384;2022-07-01T00:42:16;9.43;;;7.13;;
55469;SDS011;41334;47.872;16.384;2022-07-01T00:45:18;11.07;;;7.57;;
55469;SDS011;41334;47.872;16.384;2022-07-01T00:48:21;7.95;;;6.85;;
55469;SDS011;41334;47.872;16.384;2022-07-01T00:51:24;7.68;;;5.93;;
55469;SDS011;41334;47.872;16.384;2022-07-01T00:54:26;7.55;;;6.38;;
55469;SDS011;41334;47.872;16.384;2022-07-01T00:57:30;9.95;;;6.60;;
55469;SDS011;41334;47.872;16.384;2022-07-01T01:00:32;9.23;;;5.63;;
55469;SDS011;41334;47.872;16.384;2022-07-01T01:03:35;8.45;;;5.75;;
55469;SDS011;41334;47.872;16.384;2022-07-01T01:06:37;8.52;;;5.55;;
55469;SDS011;41334;47.872;16.384;2022-07-01T01:09:39;7.70;;;5.57;;
55469;SDS011;41334;47.872;16.384;2022-07-01T01:12:41;7.45;;;5.80;;
55469;SDS011;41334;47.872;16.384;2022-07-01T01:15:44;13.85;;;5.82;;
55469;SDS011;41334;47.872;16.384;2022-07-01T01:18:46;8.65;;;6.55;;
55469;SDS011;41334;47.872;16.384;2022-07-01T01:21:48;6.32;;;5.68;;
55469;SDS011;41334;47.872;16.384;2022-07-01T01:24:50;10.48;;;5.88;;
55469;SDS011;41334;47.872;16.384;2022-07-01T01:27:52;12.18;;;6.32;;
55469;SDS011;41334;47.872;16.384;2022-07-01T01:30:54;14.02;;;6.35;;
55469;SDS011;41334;47.872;16.384;2022-07-01T01:33:57;8.98;;;6.60;;
55469;SDS011;41334;47.872;16.384;2022-07-01T01:36:59;8.98;;;5.70;;
55469;SDS011;41334;47.872;16.384;2022-07-01T01:40:01;8.38;;;6.18;;
55469;SDS011;41334;47.872;16.384;2022-07-01T01:43:04;9.80;;;6.88;;
55469;SDS011;41334;47.872;16.384;2022-07-01T01:46:06;8.35;;;5.90;;
55469;SDS011;41334;47.872;16.384;2022-07-01T01:49:08;11.48;;;5.72;;
55469;SDS011;41334;47.872;16.384;2022-07-01T01:52:10;10.07;;;6.03;;
55469;SDS011;41334;47.872;16.384;2022-07-01T01:55:12;8.05;;;6.55;;
55469;SDS011;41334;47.872;16.384;2022-07-01T01:58:15;7.32;;;5.82;;
55469;SDS011;41334;47.872;16.384;2022-07-01T02:01:17;8.40;;;5.63;;
55469;SDS011;41334;47.872;16.384;2022-07-01T02:04:20;7.30;;;5.75;;
55469;SDS011;41334;47.872;16.384;2022-07-01T02:07:25;7.35;;;5.47;;
55469;SDS011;41334;47.872;16.384;2022-07-01T02:10:26;8.45;;;5.95;;
55469;SDS011;41334;47.872;16.384;2022-07-01T02:13:28;8.25;;;5.30;;
55469;SDS011;41334;47.872;16.384;2022-07-01T02:16:30;7.75;;;6.00;;
55469;SDS011;41334;47.872;16.384;2022-07-01T02:19:33;7.53;;;5.80;;
55469;SDS011;41334;47.872;16.384;2022-07-01T02:22:35;7.30;;;5.90;;
55469;SDS011;41334;47.872;16.384;2022-07-01T02:25:37;7.82;;;5.82;;
55469;SDS011;41334;47.872;16.384;2022-07-01T02:28:39;10.68;;;6.47;;
55469;SDS011;41334;47.872;16.384;2022-07-01T02:31:41;8.07;;;6.43;;
55469;SDS011;41334;47.872;16.384;2022-07-01T02:34:43;9.70;;;6.88;;
55469;SDS011;41334;47.872;16.384;2022-07-01T02:37:45;11.10;;;7.65;;
55469;SDS011;41334;47.872;16.384;2022-07-01T02:40:47;13.27;;;7.25;;
55469;SDS011;41334;47.872;16.384;2022-07-01T02:43:48;9.65;;;7.38;;
55469;SDS011;41334;47.872;16.384;2022-07-01T02:46:50;13.02;;;8.25;;
55469;SDS011;41334;47.872;16.384;2022-07-01T02:49:55;14.85;;;8.10;;
55469;SDS011;41334;47.872;16.384;2022-07-01T02:52:57;11.00;;;8.00;;
55469;SDS011;41334;47.872;16.384;2022-07-01T02:55:59;10.38;;;7.93;;
55469;SDS011;41334;47.872;16.384;2022-07-01T02:59:01;12.27;;;8.27;;
55469;SDS011;41334;47.872;16.384;2022-07-01T03:02:04;11.30;;;7.75;;
55469;SDS011;41334;47.872;16.384;2022-07-01T03:05:06;18.52;;;8.02;;
55469;SDS011;41334;47.872;16.384;2022-07-01T03:08:09;9.30;;;7.55;;
55469;SDS011;41334;47.872;16.384;2022-07-01T03:11:11;9.65;;;7.90;;
55469;SDS011;41334;47.872;16.384;2022-07-01T03:14:16;11.23;;;7.40;;
55469;SDS011;41334;47.872;16.384;2022-07-01T03:17:18;7.60;;;6.32;;
55469;SDS011;41334;47.872;16.384;2022-07-01T03:20:21;9.77;;;6.63;;
55469;SDS011;41334;47.872;16.384;2022-07-01T03:23:22;9.40;;;6.80;;
55469;SDS011;41334;47.872;16.384;2022-07-01T03:26:24;9.20;;;6.65;;
55469;SDS011;41334;47.872;16.384;2022-07-01T03:29:26;8.27;;;6.40;;
55469;SDS011;41334;47.872;16.384;2022-07-01T03:32:28;10.13;;;6.63;;
55469;SDS011;41334;47.872;16.384;2022-07-01T03:35:30;9.52;;;7.88;;
55469;SDS011;41334;47.872;16.384;2022-07-01T03:38:38;11.43;;;7.68;;
55469;SDS011;41334;47.872;16.384;2022-07-01T03:41:43;11.07;;;7.55;;
55469;SDS011;41334;47.872;16.384;2022-07-01T03:44:45;8.90;;;7.05;;
55469;SDS011;41334;47.872;16.384;2022-07-01T03:47:48;11.35;;;7.65;;
55469;SDS011;41334;47.872;16.384;2022-07-01T03:50:51;11.50;;;8.07;;
55469;SDS011;41334;47.872;16.384;2022-07-01T03:53:53;13.30;;;8.15;;
55469;SDS011;41334;47.872;16.384;2022-07-01T03:57:14;11.48;;;8.32;;
55469;SDS011;41334;47.872;16.384;2022-07-01T04:00:15;14.63;;;9.27;;
55469;SDS011;41334;47.872;16.384;2022-07-01T04:03:20;14.17;;;7.90;;
55469;SDS011;41334;47.872;16.384;2022-07-01T04:06:23;10.13;;;8.23;;
55469;SDS011;41334;47.872;16.384;2022-07-01T04:09:25;12.57;;;8.27;;
55469;SDS011;41334;47.872;16.384;2022-07-01T04:12:29;13.60;;;8.48;;
55469;SDS011;41334;47.872;16.384;2022-07-01T04:15:31;9.65;;;8.48;;
55469;SDS011;41334;47.872;16.384;2022-07-01T04:18:33;10.65;;;8.88;;
55469;SDS011;41334;47.872;16.384;2022-07-01T04:21:35;12.02;;;8.35;;
55469;SDS011;41334;47.872;16.384;2022-07-01T04:24:56;12.40;;;8.63;;
55469;SDS011;41334;47.872;16.384;2022-07-01T04:27:57;13.70;;;9.18;;
55469;SDS011;41334;47.872;16.384;2022-07-01T04:31:00;12.68;;;9.45;;
55469;SDS011;41334;47.872;16.384;2022-07-01T04:34:02;12.02;;;8.60;;
55469;SDS011;41334;47.872;16.384;2022-07-01T04:37:05;15.20;;;9.00;;
55469;SDS011;41334;47.872;16.384;2022-07-01T04:40:07;14.85;;;8.80;;
55469;SDS011;41334;47.872;16.384;2022-07-01T04:43:09;14.43;;;8.35;;
55469;SDS011;41334;47.872;16.384;2022-07-01T04:46:11;14.95;;;8.25;;
55469;SDS011;41334;47.872;16.384;2022-07-01T04:49:13;13.60;;;8.32;;
55469;SDS011;41334;47.872;16.384;2022-07-01T04:52:15;14.82;;;8.48;;
55469;SDS011;41334;47.872;16.384;2022-07-01T04:55:17;15.30;;;8.35;;
55469;SDS011;41334;47.872;16.384;2022-07-01T04:58:19;17.95;;;8.90;;
55469;SDS011;41334;47.872;16.384;2022-07-01T05:01:21;14.48;;;8.85;;
55469;SDS011;41334;47.872;16.384;2022-07-01T05:04:24;13.85;;;7.70;;
55469;SDS011;41334;47.872;16.384;2022-07-01T05:07:28;13.15;;;8.30;;
55469;SDS011;41334;47.872;16.384;2022-07-01T05:10:30;14.07;;;8.45;;
55469;SDS011;41334;47.872;16.384;2022-07-01T05:13:32;14.52;;;8.88;;
55469;SDS011;41334;47.872;16.384;2022-07-01T05:16:37;29.38;;;9.55;;
55469;SDS011;41334;47.872;16.384;2022-07-01T05:19:40;16.60;;;9.00;;
55469;SDS011;41334;47.872;16.384;2022-07-01T05:23:00;16.70;;;7.57;;
55469;SDS011;41334;47.872;16.384;2022-07-01T05:26:02;14.50;;;7.85;;
55469;SDS011;41334;47.872;16.384;2022-07-01T05:29:05;16.15;;;7.35;;
55469;SDS011;41334;47.872;16.384;2022-07-01T05:32:07;12.10;;;8.43;;
55469;SDS011;41334;47.872;16.384;2022-07-01T05:35:09;13.10;;;7.82;;
55469;SDS011;41334;47.872;16.384;2022-07-01T05:38:11;13.20;;;7.93;;
55469;SDS011;41334;47.872;16.384;2022-07-01T05:41:13;16.73;;;7.35;;
55469;SDS011;41334;47.872;16.384;2022-07-01T05:44:15;12.50;;;6.32;;
55469;SDS011;41334;47.872;16.384;2022-07-01T05:47:16;11.73;;;7.05;;
55469;SDS011;41334;47.872;16.384;2022-07-01T05:50:18;12.70;;;6.70;;
55469;SDS011;41334;47.872;16.384;2022-07-01T05:53:20;9.50;;;6.00;;
55469;SDS011;41334;47.872;16.384;2022-07-01T05:56:24;10.45;;;5.95;;
55469;SDS011;41334;47.872;16.384;2022-07-01T05:59:26;10.95;;;6.03;;
55469;SDS011;41334;47.872;16.384;2022-07-01T06:02:28;10.85;;;6.20;;
55469;SDS011;41334;47.872;16.384;2022-07-01T06:05:30;8.13;;;5.97;;
55469;SDS011;41334;47.872;16.384;2022-07-01T06:08:33;10.40;;;5.55;;
55469;SDS011;41334;47.872;16.384;2022-07-01T06:11:35;8.35;;;5.18;;
55469;SDS011;41334;47.872;16.384;2022-07-01T06:14:37;6.57;;;5.07;;
55469;SDS011;41334;47.872;16.384;2022-07-01T06:17:40;5.88;;;5.15;;
55469;SDS011;41334;47.872;16.384;2022-07-01T06:20:42;5.95;;;4.03;;
55469;SDS011;41334;47.872;16.384;2022-07-01T06:23:45;5.00;;;3.67;;
55469;SDS011;41334;47.872;16.384;2022-07-01T06:26:47;5.82;;;2.05;;
55469;SDS011;41334;47.872;16.384;2022-07-01T06:29:50;4.35;;;2.17;;
55469;SDS011;41334;47.872;16.384;2022-07-01T06:32:52;4.78;;;2.17;;
55469;SDS011;41334;47.872;16.384;2022-07-01T06:35:54;5.38;;;1.90;;
55469;SDS011;41334;47.872;16.384;2022-07-01T06:38:55;2.58;;;1.80;;
55469;SDS011;41334;47.872;16.384;2022-07-01T06:41:57;6.82;;;2.63;;
55469;SDS011;41334;47.872;16.384;2022-07-01T06:44:59;7.55;;;2.40;;
55469;SDS011;41334;47.872;16.384;2022-07-01T06:48:02;4.53;;;2.50;;
55469;SDS011;41334;47.872;16.384;2022-07-01T06:51:04;11.93;;;3.20;;
55469;SDS011;41334;47.872;16.384;2022-07-01T06:54:07;3.83;;;2.92;;
55469;SDS011;41334;47.872;16.384;2022-07-01T06:57:09;6.47;;;2.90;;
55469;SDS011;41334;47.872;16.384;2022-07-01T07:00:12;3.63;;;2.03;;
55469;SDS011;41334;47.872;16.384;2022-07-01T07:03:14;4.25;;;2.33;;
55469;SDS011;41334;47.872;16.384;2022-07-01T07:06:17;2.85;;;1.80;;
55469;SDS011;41334;47.872;16.384;2022-07-01T07:09:19;2.63;;;1.50;;
55469;SDS011;41334;47.872;16.384;2022-07-01T07:12:20;6.45;;;2.33;;
55469;SDS011;41334;47.872;16.384;2022-07-01T07:15:22;2.78;;;1.85;;
55469;SDS011;41334;47.872;16.384;2022-07-01T07:18:26;6.88;;;1.70;;
55469;SDS011;41334;47.872;16.384;2022-07-01T07:21:27;3.72;;;1.70;;
55469;SDS011;41334;47.872;16.384;2022-07-01T07:24:29;3.40;;;1.58;;
55469;SDS011;41334;47.872;16.384;2022-07-01T07:27:31;4.22;;;1.70;;
55469;SDS011;41334;47.872;16.384;2022-07-01T07:30:35;8.40;;;1.77;;
55469;SDS011;41334;47.872;16.384;2022-07-01T07:33:37;4.05;;;1.60;;
55469;SDS011;41334;47.872;16.384;2022-07-01T07:36:39;4.22;;;1.75;;
55469;SDS011;41334;47.872;16.384;2022-07-01T07:39:40;2.38;;;1.70;;
55469;SDS011;41334;47.872;16.384;2022-07-01T07:42:42;5.97;;;1.55;;
55469;SDS011;41334;47.872;16.384;2022-07-01T07:45:44;4.07;;;1.60;;
55469;SDS011;41334;47.872;16.384;2022-07-01T07:48:46;2.15;;;1.67;;
55469;SDS011;41334;47.872;16.384;2022-07-01T07:51:49;3.40;;;1.92;;
55469;SDS011;41334;47.872;16.384;2022-07-01T07:54:51;2.53;;;1.60;;
55469;SDS011;41334;47.872;16.384;2022-07-01T07:57:53;4.25;;;2.10;;
55469;SDS011;41334;47.872;16.384;2022-07-01T08:00:55;3.55;;;2.13;;
55469;SDS011;41334;47.872;16.384;2022-07-01T08:03:57;3.25;;;2.20;;
55469;SDS011;41334;47.872;16.384;2022-07-01T08:06:59;3.78;;;2.63;;
55469;SDS011;41334;47.872;16.384;2022-07-01T08:10:01;4.63;;;2.17;;
55469;SDS011;41334;47.872;16.384;2022-07-01T08:13:04;5.55;;;2.58;;
55469;SDS011;41334;47.872;16.384;2022-07-01T08:16:07;4.22;;;2.88;;
55469;SDS011;41334;47.872;16.384;2022-07-01T08:19:10;6.95;;;2.50;;
55469;SDS011;41334;47.872;16.384;2022-07-01T08:22:12;7.85;;;2.60;;
55469;SDS011;41334;47.872;16.384;2022-07-01T08:25:14;4.22;;;2.25;;
55469;SDS011;41334;47.872;16.384;2022-07-01T08:28:16;2.25;;;1.60;;
55469;SDS011;41334;47.872;16.384;2022-07-01T08:31:18;2.80;;;1.90;;
55469;SDS011;41334;47.872;16.384;2022-07-01T08:34:20;2.75;;;1.90;;
55469;SDS011;41334;47.872;16.384;2022-07-01T08:37:22;3.55;;;2.33;;
55469;SDS011;41334;47.872;16.384;2022-07-01T08:40:25;7.40;;;2.20;;
55469;SDS011;41334;47.872;16.384;2022-07-01T08:43:31;2.65;;;2.00;;
55469;SDS011;41334;47.872;16.384;2022-07-01T08:46:33;9.60;;;1.95;;
55469;SDS011;41334;47.872;16.384;2022-07-01T08:49:36;5.03;;;1.88;;
55469;SDS011;41334;47.872;16.384;2022-07-01T08:52:38;5.93;;;2.30;;
55469;SDS011;41334;47.872;16.384;2022-07-01T08:55:40;3.83;;;2.08;;
55469;SDS011;41334;47.872;16.384;2022-07-01T08:59:00;5.57;;;1.92;;
55469;SDS011;41334;47.872;16.384;2022-07-01T09:02:03;4.18;;;2.13;;
55469;SDS011;41334;47.872;16.384;2022-07-01T09:05:06;4.60;;;2.00;;
55469;SDS011;41334;47.872;16.384;2022-07-01T09:08:08;4.32;;;1.85;;
55469;SDS011;41334;47.872;16.384;2022-07-01T09:11:11;6.00;;;2.40;;
55469;SDS011;41334;47.872;16.384;2022-07-01T09:14:16;5.95;;;1.92;;
55469;SDS011;41334;47.872;16.384;2022-07-01T09:17:19;5.38;;;2.40;;
55469;SDS011;41334;47.872;16.384;2022-07-01T09:20:26;5.47;;;2.20;;
55469;SDS011;41334;47.872;16.384;2022-07-01T09:23:32;3.83;;;2.28;;
55469;SDS011;41334;47.872;16.384;2022-07-01T09:26:34;4.38;;;2.35;;
55469;SDS011;41334;47.872;16.384;2022-07-01T09:29:41;3.28;;;2.13;;
55469;SDS011;41334;47.872;16.384;2022-07-01T09:32:44;5.13;;;2.22;;
55469;SDS011;41334;47.872;16.384;2022-07-01T09:35:47;3.88;;;2.22;;
55469;SDS011;41334;47.872;16.384;2022-07-01T09:38:52;6.43;;;3.05;;
55469;SDS011;41334;47.872;16.384;2022-07-01T09:42:15;5.32;;;2.65;;
55469;SDS011;41334;47.872;16.384;2022-07-01T09:45:19;3.38;;;2.17;;
55469;SDS011;41334;47.872;16.384;2022-07-01T09:48:21;3.47;;;2.50;;
55469;SDS011;41334;47.872;16.384;2022-07-01T09:51:24;6.40;;;2.20;;
55469;SDS011;41334;47.872;16.384;2022-07-01T09:54:26;4.88;;;2.60;;
55469;SDS011;41334;47.872;16.384;2022-07-01T09:57:28;2.90;;;2.50;;
55469;SDS011;41334;47.872;16.384;2022-07-01T10:00:30;3.97;;;2.33;;
55469;SDS011;41334;47.872;16.384;2022-07-01T10:03:33;4.75;;;2.38;;
55469;SDS011;41334;47.872;16.384;2022-07-01T10:13:30;8.18;;;2.95;;
55469;SDS011;41334;47.872;16.384;2022-07-01T10:16:35;3.42;;;2.97;;
55469;SDS011;41334;47.872;16.384;2022-07-01T10:19:40;4.90;;;2.97;;
55469;SDS011;41334;47.872;16.384;2022-07-01T10:22:42;4.32;;;2.70;;
55469;SDS011;41334;47.872;16.384;2022-07-01T10:25:47;4.93;;;2.65;;
55469;SDS011;41334;47.872;16.384;2022-07-01T10:28:50;4.25;;;2.85;;
55469;SDS011;41334;47.872;16.384;2022-07-01T10:31:56;3.13;;;2.58;;
55469;SDS011;41334;47.872;16.384;2022-07-01T10:35:15;3.90;;;2.72;;
55469;SDS011;41334;47.872;16.384;2022-07-01T10:38:17;5.30;;;2.75;;
55469;SDS011;41334;47.872;16.384;2022-07-01T10:41:23;3.45;;;2.30;;
55469;SDS011;41334;47.872;16.384;2022-07-01T10:44:27;3.85;;;2.67;;
55469;SDS011;41334;47.872;16.384;2022-07-01T10:47:29;3.05;;;2.40;;
55469;SDS011;41334;47.872;16.384;2022-07-01T10:50:37;6.20;;;2.80;;
55469;SDS011;41334;47.872;16.384;2022-07-01T10:53:46;4.80;;;2.88;;
55469;SDS011;41334;47.872;16.384;2022-07-01T10:56:56;3.30;;;2.92;;
55469;SDS011;41334;47.872;16.384;2022-07-01T11:03:07;9.05;;;3.28;;
55469;SDS011;41334;47.872;16.384;2022-07-01T11:06:17;8.02;;;3.50;;
55469;SDS011;41334;47.872;16.384;2022-07-01T11:09:19;6.60;;;2.80;;
55469;SDS011;41334;47.872;16.384;2022-07-01T11:12:22;6.35;;;2.40;;
55469;SDS011;41334;47.872;16.384;2022-07-01T11:15:26;6.78;;;3.17;;
55469;SDS011;41334;47.872;16.384;2022-07-01T11:18:30;5.43;;;3.28;;
55469;SDS011;41334;47.872;16.384;2022-07-01T11:21:32;5.53;;;2.80;;
55469;SDS011;41334;47.872;16.384;2022-07-01T11:24:34;6.13;;;3.30;;
55469;SDS011;41334;47.872;16.384;2022-07-01T11:27:37;9.25;;;2.90;;
55469;SDS011;41334;47.872;16.384;2022-07-01T11:30:39;5.00;;;2.50;;
55469;SDS011;41334;47.872;16.384;2022-07-01T11:33:42;5.28;;;2.80;;
55469;SDS011;41334;47.872;16.384;2022-07-01T11:36:51;4.40;;;2.70;;
55469;SDS011;41334;47.872;16.384;2022-07-01T11:40:12;5.55;;;2.72;;
55469;SDS011;41334;47.872;16.384;2022-07-01T11:43:20;4.78;;;2.60;;
55469;SDS011;41334;47.872;16.384;2022-07-01T11:46:23;5.55;;;2.67;;
55469;SDS011;41334;47.872;16.384;2022-07-01T11:49:25;6.15;;;2.75;;
55469;SDS011;41334;47.872;16.384;2022-07-01T11:52:28;4.82;;;2.40;;
55469;SDS011;41334;47.872;16.384;2022-07-01T11:55:29;7.65;;;2.75;;
55469;SDS011;41334;47.872;16.384;2022-07-01T11:58:45;7.03;;;2.80;;
55469;SDS011;41334;47.872;16.384;2022-07-01T12:01:52;4.35;;;2.50;;
55469;SDS011;41334;47.872;16.384;2022-07-01T12:04:56;7.15;;;2.70;;
55469;SDS011;41334;47.872;16.384;2022-07-01T12:08:01;3.80;;;2.55;;
55469;SDS011;41334;47.872;16.384;2022-07-01T12:11:03;4.63;;;2.50;;
55469;SDS011;41334;47.872;16.384;2022-07-01T12:14:05;4.45;;;2.45;;
55469;SDS011;41334;47.872;16.384;2022-07-01T12:17:07;8.23;;;2.40;;
55469;SDS011;41334;47.872;16.384;2022-07-01T12:20:10;6.22;;;2.38;;
55469;SDS011;41334;47.872;16.384;2022-07-01T12:23:13;6.35;;;2.47;;
55469;SDS011;41334;47.872;16.384;2022-07-01T12:26:15;5.18;;;2.85;;
55469;SDS011;41334;47.872;16.384;2022-07-01T12:29:20;3.67;;;2.28;;
55469;SDS011;41334;47.872;16.384;2022-07-01T12:32:25;5.07;;;2.40;;
55469;SDS011;41334;47.872;16.384;2022-07-01T12:35:29;6.38;;;2.97;;
55469;SDS011;41334;47.872;16.384;2022-07-01T12:38:38;5.00;;;2.67;;
55469;SDS011;41334;47.872;16.384;2022-07-01T12:41:40;8.05;;;2.35;;
55469;SDS011;41334;47.872;16.384;2022-07-01T12:44:50;4.15;;;2.63;;
55469;SDS011;41334;47.872;16.384;2022-07-01T12:47:54;5.95;;;2.67;;
55469;SDS011;41334;47.872;16.384;2022-07-01T12:50:57;4.07;;;2.70;;
55469;SDS011;41334;47.872;16.384;2022-07-01T12:53:59;8.68;;;3.05;;
55469;SDS011;41334;47.872;16.384;2022-07-01T12:57:02;6.30;;;2.28;;
55469;SDS011;41334;47.872;16.384;2022-07-01T13:00:04;6.22;;;2.70;;
55469;SDS011;41334;47.872;16.384;2022-07-01T13:03:07;5.13;;;2.50;;
55469;SDS011;41334;47.872;16.384;2022-07-01T13:06:09;9.88;;;2.78;;
55469;SDS011;41334;47.872;16.384;2022-07-01T13:09:11;6.75;;;2.70;;
55469;SDS011;41334;47.872;16.384;2022-07-01T13:12:13;3.63;;;2.80;;
55469;SDS011;41334;47.872;16.384;2022-07-01T13:15:15;5.32;;;2.63;;
55469;SDS011;41334;47.872;16.384;2022-07-01T13:18:18;4.75;;;2.42;;
55469;SDS011;41334;47.872;16.384;2022-07-01T13:21:20;3.35;;;1.98;;
55469;SDS011;41334;47.872;16.384;2022-07-01T13:24:22;4.97;;;2.95;;
55469;SDS011;41334;47.872;16.384;2022-07-01T13:27:34;6.90;;;2.42;;
55469;SDS011;41334;47.872;16.384;2022-07-01T13:30:36;6.22;;;2.50;;
55469;SDS011;41334;47.872;16.384;2022-07-01T13:33:39;4.93;;;2.28;;
55469;SDS011;41334;47.872;16.384;2022-07-01T13:36:41;4.18;;;2.45;;
55469;SDS011;41334;47.872;16.384;2022-07-01T13:39:43;5.85;;;2.67;;
55469;SDS011;41334;47.872;16.384;2022-07-01T13:42:45;6.05;;;2.55;;
55469;SDS011;41334;47.872;16.384;2022-07-01T13:45:47;2.60;;;2.10;;
55469;SDS011;41334;47.872;16.384;2022-07-01T13:48:49;4.80;;;2.55;;
55469;SDS011;41334;47.872;16.384;2022-07-01T13:51:51;5.80;;;2.92;;
55469;SDS011;41334;47.872;16.384;2022-07-01T13:54:54;5.00;;;2.60;;
55469;SDS011;41334;47.872;16.384;2022-07-01T13:57:56;3.85;;;2.22;;
55469;SDS011;41334;47.872;16.384;2022-07-01T14:00:59;2.92;;;2.25;;
55469;SDS011;41334;47.872;16.384;2022-07-01T14:04:01;5.70;;;2.50;;
55469;SDS011;41334;47.872;16.384;2022-07-01T14:07:03;6.70;;;2.90;;
55469;SDS011;41334;47.872;16.384;2022-07-01T14:10:05;5.57;;;2.35;;
55469;SDS011;41334;47.872;16.384;2022-07-01T14:13:08;5.75;;;2.40;;
55469;SDS011;41334;47.872;16.384;2022-07-01T14:16:10;3.28;;;2.50;;
55469;SDS011;41334;47.872;16.384;2022-07-01T14:19:12;4.57;;;2.70;;
55469;SDS011;41334;47.872;16.384;2022-07-01T14:22:14;5.43;;;2.75;;
55469;SDS011;41334;47.872;16.384;2022-07-01T14:25:16;4.65;;;2.80;;
55469;SDS011;41334;47.872;16.384;2022-07-01T14:28:17;4.05;;;1.98;;
55469;SDS011;41334;47.872;16.384;2022-07-01T14:31:20;5.25;;;2.35;;
55469;SDS011;41334;47.872;16.384;2022-07-01T14:34:22;5.53;;;2.47;;
55469;SDS011;41334;47.872;16.384;2022-07-01T14:37:24;3.47;;;2.33;;
55469;SDS011;41334;47.872;16.384;2022-07-01T14:40:26;2.97;;;2.60;;
55469;SDS011;41334;47.872;16.384;2022-07-01T14:43:28;5.95;;;2.20;;
55469;SDS011;41334;47.872;16.384;2022-07-01T14:46:31;5.60;;;2.50;;
55469;SDS011;41334;47.872;16.384;2022-07-01T14:49:33;9.35;;;2.70;;
55469;SDS011;41334;47.872;16.384;2022-07-01T14:52:37;3.60;;;2.50;;
55469;SDS011;41334;47.872;16.384;2022-07-01T14:55:39;9.65;;;2.50;;
55469;SDS011;41334;47.872;16.384;2022-07-01T14:58:41;5.85;;;2.78;;
55469;SDS011;41334;47.872;16.384;2022-07-01T15:01:44;5.95;;;2.83;;
55469;SDS011;41334;47.872;16.384;2022-07-01T15:04:46;4.25;;;3.10;;
55469;SDS011;41334;47.872;16.384;2022-07-01T15:07:49;4.30;;;2.80;;
55469;SDS011;41334;47.872;16.384;2022-07-01T15:10:51;5.38;;;2.70;;
55469;SDS011;41334;47.872;16.384;2022-07-01T15:13:53;4.20;;;2.75;;
55469;SDS011;41334;47.872;16.384;2022-07-01T15:16:55;6.70;;;2.80;;
55469;SDS011;41334;47.872;16.384;2022-07-01T15:19:59;7.03;;;3.30;;
55469;SDS011;41334;47.872;16.384;2022-07-01T15:23:01;6.45;;;2.70;;
55469;SDS011;41334;47.872;16.384;2022-07-01T15:26:02;3.47;;;2.60;;
55469;SDS011;41334;47.872;16.384;2022-07-01T15:29:05;7.55;;;2.70;;
55469;SDS011;41334;47.872;16.384;2022-07-01T15:32:07;8.07;;;2.80;;
55469;SDS011;41334;47.872;16.384;2022-07-01T15:35:09;3.78;;;2.60;;
55469;SDS011;41334;47.872;16.384;2022-07-01T15:38:11;5.50;;;3.00;;
55469;SDS011;41334;47.872;16.384;2022-07-01T15:41:13;10.10;;;2.92;;
55469;SDS011;41334;47.872;16.384;2022-07-01T15:44:17;5.82;;;2.60;;
55469;SDS011;41334;47.872;16.384;2022-07-01T15:47:19;6.57;;;3.00;;
55469;SDS011;41334;47.872;16.384;2022-07-01T15:50:40;2.67;;;1.98;;
55469;SDS011;41334;47.872;16.384;2022-07-01T15:53:43;4.03;;;2.17;;
55469;SDS011;41334;47.872;16.384;2022-07-01T15:56:45;8.13;;;2.80;;
55469;SDS011;41334;47.872;16.384;2022-07-01T15:59:47;4.88;;;2.70;;
55469;SDS011;41334;47.872;16.384;2022-07-01T16:02:49;4.22;;;2.35;;
55469;SDS011;41334;47.872;16.384;2022-07-01T16:05:51;5.35;;;2.30;;
55469;SDS011;41334;47.872;16.384;2022-07-01T16:08:59;3.40;;;2.40;;
55469;SDS011;41334;47.872;16.384;2022-07-01T16:12:02;3.45;;;2.63;;
55469;SDS011;41334;47.872;16.384;2022-07-01T16:15:05;7.43;;;2.70;;
55469;SDS011;41334;47.872;16.384;2022-07-01T16:18:08;2.80;;;2.20;;
55469;SDS011;41334;47.872;16.384;2022-07-01T16:21:12;9.90;;;3.10;;
55469;SDS011;41334;47.872;16.384;2022-07-01T16:24:14;6.43;;;2.05;;
55469;SDS011;41334;47.872;16.384;2022-07-01T16:27:17;5.45;;;2.13;;
55469;SDS011;41334;47.872;16.384;2022-07-01T16:30:18;4.82;;;2.70;;
55469;SDS011;41334;47.872;16.384;2022-07-01T16:33:20;2.55;;;1.92;;
55469;SDS011;41334;47.872;16.384;2022-07-01T16:39:30;5.50;;;2.78;;
55469;SDS011;41334;47.872;16.384;2022-07-01T16:42:32;4.65;;;2.45;;
55469;SDS011;41334;47.872;16.384;2022-07-01T16:45:38;4.78;;;2.50;;
55469;SDS011;41334;47.872;16.384;2022-07-01T16:48:41;6.43;;;1.88;;
55469;SDS011;41334;47.872;16.384;2022-07-01T16:51:50;6.00;;;1.50;;
55469;SDS011;41334;47.872;16.384;2022-07-01T16:55:02;2.92;;;1.35;;
55469;SDS011;41334;47.872;16.384;2022-07-01T17:01:09;6.35;;;1.58;;
55469;SDS011;41334;47.872;16.384;2022-07-01T17:04:12;3.17;;;1.27;;
55469;SDS011;41334;47.872;16.384;2022-07-01T17:07:17;6.95;;;1.65;;
55469;SDS011;41334;47.872;16.384;2022-07-01T17:10:19;1.20;;;0.70;;
55469;SDS011;41334;47.872;16.384;2022-07-01T17:13:24;4.07;;;0.90;;
55469;SDS011;41334;47.872;16.384;2022-07-01T17:16:27;2.10;;;0.50;;
55469;SDS011;41334;47.872;16.384;2022-07-01T17:19:30;5.07;;;0.30;;
55469;SDS011;41334;47.872;16.384;2022-07-01T17:22:43;0.77;;;0.40;;
55469;SDS011;41334;47.872;16.384;2022-07-01T17:25:52;0.55;;;0.20;;
55469;SDS011;41334;47.872;16.384;2022-07-01T17:28:59;1.58;;;0.68;;
55469;SDS011;41334;47.872;16.384;2022-07-01T17:32:07;1.48;;;0.40;;
55469;SDS011;41334;47.872;16.384;2022-07-01T17:35:12;4.85;;;0.40;;
55469;SDS011;41334;47.872;16.384;2022-07-01T17:38:18;2.72;;;0.35;;
55469;SDS011;41334;47.872;16.384;2022-07-01T17:41:33;2.97;;;0.38;;
55469;SDS011;41334;47.872;16.384;2022-07-01T17:44:38;3.58;;;0.60;;
55469;SDS011;41334;47.872;16.384;2022-07-01T17:47:42;2.38;;;0.30;;
55469;SDS011;41334;47.872;16.384;2022-07-01T17:50:45;2.25;;;0.47;;
55469;SDS011;41334;47.872;16.384;2022-07-01T17:53:47;3.45;;;0.40;;
55469;SDS011;41334;47.872;16.384;2022-07-01T17:56:49;0.52;;;0.30;;
55469;SDS011;41334;47.872;16.384;2022-07-01T17:59:53;1.85;;;0.28;;
55469;SDS011;41334;47.872;16.384;2022-07-01T18:02:57;0.38;;;0.10;;
55469;SDS011;41334;47.872;16.384;2022-07-01T18:05:59;0.65;;;0.17;;
55469;SDS011;41334;47.872;16.384;2022-07-01T18:09:02;0.13;;;0.10;;
55469;SDS011;41334;47.872;16.384;2022-07-01T18:12:21;3.55;;;0.20;;
55469;SDS011;41334;47.872;16.384;2022-07-01T18:15:36;0.10;;;0.10;;
55469;SDS011;41334;47.872;16.384;2022-07-01T18:18:40;0.98;;;0.22;;
55469;SDS011;41334;47.872;16.384;2022-07-01T18:21:48;0.50;;;0.20;;